Swans Island, ME (04685)

12:16 AM EST on December 21, 2014 (GMT -0500)
Goose Pond Rd | Change Station
CLOSE
Current Station
Personal Weather Station
Location: Swan's Island, ME
Elevation: 92 ft
Nearby Weather Stations

Elev 92 ft 44.16 °N, 68.42 °W | Updated 5 seconds ago

Overcast
Overcast
27.9 °F
Feels Like 19 °F
N
10.0
Wind Variable Wind from NW
Gusts 12.0 mph

Today
High -- | Low -- °F
--% Chance of Precip.
Yesterday
High -- | Low -- °F
Precip. -- in
7:05 AM 3:57 PM
Waning Crescent, 1% visible
Pressure 30.32 in
Visibility 10.0 miles
Clouds Mostly Cloudy 2200 ft
Overcast 2900 ft
Windchill 19 °F
Dew Point Not available.
Humidity Not available.
Rainfall 0.00 in
Snow Depth Not available.
UV 0 out of 12
Pollen .10 out of 12
Air Quality Not available.
Flu Activity Not available.
METAR KBHB 210455Z AUTO 36005KT 10SM BKN022 OVC029 M03/M03 A3032 RMK AO1

More Conditions Fewer Conditions

Pressure 30.32 in
Visibility 10.0 miles
Clouds Mostly Cloudy 2200 ft
Overcast 2900 ft
Windchill 19 °F
Dew Point Not available.
Humidity Not available.
Rainfall 0.00 in
Snow Depth Not available.
UV 0 out of 12
Pollen .10 out of 12
Air Quality Not available.
Flu Activity Not available.
METAR KBHB 210455Z AUTO 36005KT 10SM BKN022 OVC029 M03/M03 A3032 RMK AO1

More Conditions Fewer Conditions

10-Day Weather Forecast

Almanac

Astronomy

Dec. 21, 2014 Rise Set
Actual Time
Civil Twilight
Nautical Twilight
Astronomical Twilight
Moon
Length of Visible Light
Length of Day
Tomorrow will be .
, % of the Moon is Illuminated

Today's Extremes

State Highs State Lows

Community

WunderPhotos

Upload Photos

1,779,358 photos uploaded!

WunderBlogs® & News

Nearby

Air Quality

  Air Quality AQ Index Pollutant
Not available.

Snow Depth

Station Depth Elevation

Earthquake Activity

City Distance Mag. Time & Date
Minimum magnitude displayed is 2.5.

Coastal Water Temperatures

Place Temperature

Nearby Weather Stations